Time;durP1;ratioP1;P1;durP2;ratioP2;P2;SDS_P1;SDS_P2;PMS_P1;PMS_P2;Temp;Humidity;BMP_temperature;BMP_pressure;BME280_temperature;BME280_humidity;BME280_pressure;Samples;Min_cycle;Max_cycle;Signal;HPM_P1;HPM_P2
2022/08/09 00:02:12;;;;;;;5.60;2.40;;;;;20.10;97761.80;;;;110886;1247;41154;-66
2022/08/09 00:04:42;;;;;;;6.00;2.60;;;;;20.10;97756.40;;;;110612;1251;41155;-66
2022/08/09 00:07:11;;;;;;;7.30;2.70;;;;;20.10;97758.20;;;;110959;1249;42706;-67
2022/08/09 00:09:42;;;;;;;;;;;;;20.10;97756.40;;;;111019;1248;42056;-66
2022/08/09 00:12:12;;;;;;;7.80;3.50;;;;;20.08;97752.00;;;;110927;1247;41140;-66
2022/08/09 00:14:51;;;;;;;10.10;3.60;;;;;20.00;97752.60;;;;110893;1247;41262;-67
2022/08/09 00:17:25;;;;;;;9.00;4.50;;;;;20.00;97750.00;;;;110842;1249;41227;-67
2022/08/09 00:20:15;;;;;;;8.50;4.20;;;;;20.00;97754.60;;;;110706;1250;41266;-67
2022/08/09 00:22:45;;;;;;;9.70;3.60;;;;;20.00;97761.40;;;;110899;1249;41146;-67
2022/08/09 00:25:16;;;;;;;7.00;2.90;;;;;20.00;97758.00;;;;110635;1250;42240;-66
2022/08/09 00:27:52;;;;;;;7.60;3.10;;;;;20.00;97756.60;;;;110885;1250;41263;-67
2022/08/09 00:30:24;;;;;;;11.30;4.00;;;;;20.00;97754.00;;;;110842;1248;41254;-67
2022/08/09 00:32:54;;;;;;;9.00;4.00;;;;;20.00;97747.80;;;;111076;1247;42379;-66
2022/08/09 00:35:26;;;;;;;9.40;4.60;;;;;20.00;97749.00;;;;110934;1249;42457;-66
2022/08/09 00:37:57;;;;;;;9.60;4.70;;;;;20.00;97746.00;;;;110802;1247;42541;-67
2022/08/09 00:40:28;;;;;;;10.70;4.90;;;;;20.00;97740.60;;;;111020;1248;41257;-66
2022/08/09 00:42:59;;;;;;;8.90;4.10;;;;;20.08;97743.00;;;;110991;1249;41153;-66
2022/08/09 00:45:51;;;;;;;8.20;3.70;;;;;20.10;97747.60;;;;111052;1250;41154;-67
2022/08/09 00:48:22;;;;;;;8.70;3.80;;;;;20.10;97749.00;;;;111021;1248;41948;-66
2022/08/09 00:50:54;;;;;;;7.50;3.30;;;;;20.10;97752.80;;;;111023;1250;43033;-67
2022/08/09 00:53:24;;;;;;;7.50;2.60;;;;;20.10;97748.00;;;;110951;1248;41281;-66
2022/08/09 00:55:54;;;;;;;10.30;3.10;;;;;20.10;97750.60;;;;111067;1248;41712;-67
2022/08/09 00:58:34;;;;;;;8.10;3.70;;;;;20.10;97752.60;;;;110749;1250;41293;-67
2022/08/09 01:01:14;;;;;;;7.30;3.20;;;;;20.06;97743.20;;;;111129;1247;41308;-67
2022/08/09 01:04:03;;;;;;;6.80;3.10;;;;;20.02;97746.60;;;;111084;1247;41685;-67
2022/08/09 01:07:15;;;;;;;6.90;3.10;;;;;20.02;97749.60;;;;110729;1248;41154;-67
2022/08/09 01:09:59;;;;;;;6.20;2.80;;;;;20.00;97752.60;;;;110641;1250;41249;-67
2022/08/09 01:12:38;;;;;;;7.30;2.60;;;;;20.00;97764.60;;;;110960;1250;41675;-67
2022/08/09 01:15:13;;;;;;;6.50;2.70;;;;;20.04;97770.60;;;;110960;1249;41147;-67
2022/08/09 01:17:52;;;;;;;6.10;2.70;;;;;20.08;97775.60;;;;110812;1249;41191;-67
2022/08/09 01:20:40;;;;;;;6.10;2.70;;;;;20.10;97777.40;;;;110759;1250;41347;-66
2022/08/09 01:23:31;;;;;;;6.90;2.60;;;;;20.10;97776.20;;;;110619;1251;42475;-67
2022/08/09 01:26:40;;;;;;;6.70;2.50;;;;;20.06;97773.60;;;;111033;1248;41351;-67
2022/08/09 01:29:12;;;;;;;6.90;2.80;;;;;20.06;97774.60;;;;110681;1250;41389;-67
2022/08/09 01:31:44;;;;;;;6.30;2.60;;;;;20.00;97777.00;;;;110558;1250;41258;-67
2022/08/09 01:34:38;;;;;;;6.40;2.70;;;;;20.00;97774.60;;;;111054;1247;42032;-67
2022/08/09 01:37:11;;;;;;;8.70;3.10;;;;;20.00;97774.60;;;;111088;1248;41253;-67
2022/08/09 01:39:44;;;;;;;7.50;3.00;;;;;20.00;97774.80;;;;111068;1248;41447;-68
2022/08/09 01:42:15;;;;;;;10.20;4.00;;;;;20.00;97780.40;;;;110679;1251;41287;-68
2022/08/09 01:44:47;;;;;;;11.90;4.00;;;;;20.00;97783.60;;;;110857;1249;42453;-67
2022/08/09 01:47:20;;;;;;;9.00;3.80;;;;;20.00;97785.00;;;;111091;1248;41603;-67
2022/08/09 01:49:50;;;;;;;10.20;4.70;;;;;20.00;97785.60;;;;110790;1249;41140;-66
2022/08/09 01:52:23;;;;;;;9.00;4.30;;;;;19.96;97781.60;;;;111051;1248;41257;-66
2022/08/09 01:54:55;;;;;;;8.50;4.00;;;;;19.96;97782.80;;;;110728;1248;41464;-66
2022/08/09 01:57:37;;;;;;;9.40;4.30;;;;;19.90;97783.60;;;;111020;1248;41599;-66
2022/08/09 02:00:14;;;;;;;8.40;3.90;;;;;19.94;97781.20;;;;110675;1250;41256;-66
2022/08/09 02:03:05;;;;;;;10.60;4.20;;;;;19.90;97785.00;;;;111032;1247;41896;-65
2022/08/09 02:05:39;;;;;;;8.70;3.90;;;;;19.92;97777.80;;;;110958;1248;42322;-67
2022/08/09 02:08:31;;;;;;;9.30;4.20;;;;;19.90;97778.00;;;;110832;1250;41253;-67
2022/08/09 02:11:11;;;;;;;10.10;5.00;;;;;19.90;97780.60;;;;111100;1247;41158;-67
2022/08/09 02:13:46;;;;;;;11.60;4.50;;;;;19.90;97777.60;;;;110744;1250;41154;-67
2022/08/09 02:16:34;;;;;;;9.10;4.20;;;;;19.90;97779.00;;;;110729;1249;41150;-67
2022/08/09 02:19:25;;;;;;;8.40;3.70;;;;;19.90;97778.80;;;;111329;1248;41134;-69
2022/08/09 02:22:40;;;;;;;11.70;4.10;;;;;19.90;97776.00;;;;110921;1250;41279;-67
2022/08/09 02:25:20;;;;;;;9.20;3.80;;;;;19.90;97773.60;;;;111157;1249;41197;-67
2022/08/09 02:28:14;;;;;;;9.70;3.90;;;;;19.80;97783.00;;;;111144;1250;42401;-67
2022/08/09 02:30:50;;;;;;;7.80;3.50;;;;;19.80;97783.80;;;;110872;1248;41156;-68
2022/08/09 02:33:24;;;;;;;8.20;3.50;;;;;19.80;97778.40;;;;111237;1248;41504;-68
2022/08/09 02:36:21;;;;;;;8.10;3.50;;;;;19.80;97779.60;;;;110996;1250;41644;-67
2022/08/09 02:38:56;;;;;;;8.30;3.60;;;;;19.80;97783.00;;;;110771;1250;41129;-68
2022/08/09 02:41:45;;;;;;;7.80;3.60;;;;;19.80;97781.40;;;;111088;1247;41146;-67
2022/08/09 02:44:20;;;;;;;7.50;3.50;;;;;19.80;97782.60;;;;111002;1249;41152;-68
2022/08/09 02:47:03;;;;;;;6.30;2.90;;;;;19.80;97785.40;;;;110839;1250;41294;-66
2022/08/09 02:49:38;;;;;;;8.10;3.70;;;;;19.80;97788.20;;;;111115;1248;41609;-67
2022/08/09 02:52:14;;;;;;;9.50;3.60;;;;;19.80;97786.60;;;;110920;1250;42190;-68
2022/08/09 02:54:44;;;;;;;9.70;3.70;;;;;19.80;97791.40;;;;111093;1250;41549;-67
2022/08/09 02:57:24;;;;;;;6.00;2.60;;;;;19.80;97795.20;;;;110799;1249;41211;-68
2022/08/09 02:59:55;;;;;;;8.00;3.60;;;;;19.80;97796.40;;;;110813;1250;41360;-66
2022/08/09 03:02:51;;;;;;;7.50;3.40;;;;;19.80;97798.80;;;;111071;1249;42030;-67
2022/08/09 03:05:30;;;;;;;6.70;3.10;;;;;19.80;97800.60;;;;111222;1247;41247;-69
2022/08/09 03:08:03;;;;;;;6.20;2.70;;;;;19.80;97800.40;;;;108869;1249;2737283;-68
2022/08/09 03:10:34;;;;;;;10.10;4.00;;;;;19.80;97801.00;;;;111032;1250;41136;-68
2022/08/09 03:13:06;;;;;;;7.50;3.40;;;;;19.80;97805.40;;;;111169;1248;41249;-67
2022/08/09 03:15:38;;;;;;;6.60;2.80;;;;;19.80;97803.20;;;;110764;1249;41711;-67
2022/08/09 03:18:31;;;;;;;8.40;3.20;;;;;19.80;97809.40;;;;111016;1249;41134;-68
2022/08/09 03:21:02;;;;;;;7.10;3.00;;;;;19.80;97813.40;;;;110803;1250;41354;-69
2022/08/09 03:23:32;;;;;;;10.50;3.50;;;;;19.80;97814.40;;;;110755;1250;41264;-67
2022/08/09 03:26:03;;;;;;;7.10;3.20;;;;;19.82;97819.60;;;;110855;1250;41139;-66
2022/08/09 03:28:34;;;;;;;6.60;2.60;;;;;19.82;97816.20;;;;110824;1250;41606;-67
2022/08/09 03:31:05;;;;;;;6.80;2.90;;;;;19.86;97815.60;;;;110756;1250;41352;-67
2022/08/09 03:33:50;;;;;;;5.20;2.40;;;;;19.82;97816.80;;;;111032;1249;41569;-68
2022/08/09 03:36:23;;;;;;;5.50;2.60;;;;;19.84;97817.40;;;;110716;1250;41560;-68
2022/08/09 03:38:56;;;;;;;6.40;2.70;;;;;19.90;97821.80;;;;110812;1250;41139;-67
2022/08/09 03:41:26;;;;;;;;;;;;;19.90;97822.20;;;;110838;1250;41148;-68
2022/08/09 03:43:59;;;;;;;10.60;3.80;;;;;19.90;97824.20;;;;110960;1250;41115;-69
2022/08/09 03:46:34;;;;;;;8.70;3.50;;;;;19.88;97827.80;;;;110830;1250;41864;-68
2022/08/09 03:49:06;;;;;;;8.20;3.80;;;;;19.84;97821.00;;;;110795;1250;41303;-68
2022/08/09 03:51:42;;;;;;;9.30;3.00;;;;;19.80;97828.00;;;;111117;1249;41258;-68
2022/08/09 03:54:37;;;;;;;6.20;2.70;;;;;19.80;97819.60;;;;111053;1247;41158;-70
2022/08/09 03:57:11;;;;;;;6.60;2.90;;;;;19.80;97815.20;;;;110931;1249;40903;-68
2022/08/09 03:59:51;;;;;;;6.70;3.00;;;;;19.84;97812.20;;;;111318;1250;40926;-67
2022/08/09 04:02:26;;;;;;;6.60;2.90;;;;;19.90;97806.80;;;;110993;1248;41124;-66
2022/08/09 04:04:59;;;;;;;7.30;2.90;;;;;19.90;97806.80;;;;110888;1250;41146;-66
2022/08/09 04:07:29;;;;;;;6.60;2.80;;;;;19.90;97806.40;;;;111027;1248;42330;-66
2022/08/09 04:10:03;;;;;;;7.00;2.80;;;;;19.90;97806.60;;;;111069;1248;41179;-66
2022/08/09 04:12:35;;;;;;;6.00;2.70;;;;;19.90;97807.60;;;;110864;1250;42384;-66
2022/08/09 04:15:05;;;;;;;6.70;2.70;;;;;19.92;97808.00;;;;110943;1249;41587;-66
2022/08/09 04:17:42;;;;;;;6.00;2.60;;;;;20.00;97808.00;;;;111141;1248;41684;-67
2022/08/09 04:20:12;;;;;;;6.10;2.50;;;;;20.00;97810.20;;;;110992;1250;41152;-65
2022/08/09 04:22:43;;;;;;;7.00;3.10;;;;;20.00;97806.20;;;;111100;1250;41146;-67
2022/08/09 04:25:13;;;;;;;6.60;2.90;;;;;20.00;97804.00;;;;110990;1250;41531;-67
2022/08/09 04:27:42;;;;;;;6.00;2.50;;;;;20.10;97799.20;;;;111178;1248;41899;-67
2022/08/09 04:30:16;;;;;;;6.00;2.60;;;;;20.10;97802.40;;;;111174;1249;41142;-66
2022/08/09 04:32:45;;;;;;;7.70;3.40;;;;;20.10;97804.80;;;;110736;1250;41195;-67
2022/08/09 04:35:16;;;;;;;8.80;4.00;;;;;20.10;97812.40;;;;111058;1250;41639;-68
2022/08/09 04:37:45;;;;;;;7.90;3.30;;;;;20.10;97811.60;;;;111085;1250;41005;-67
2022/08/09 04:40:14;;;;;;;6.10;2.70;;;;;20.08;97804.20;;;;111143;1249;41410;-68
2022/08/09 04:42:56;;;;;;;10.30;3.70;;;;;20.10;97803.00;;;;111174;1248;40742;-68
2022/08/09 04:45:25;;;;;;;9.90;3.60;;;;;20.10;97797.00;;;;111194;1250;41605;-69
2022/08/09 04:47:58;;;;;;;8.00;3.60;;;;;20.10;97795.20;;;;111090;1250;41242;-68
2022/08/09 04:50:31;;;;;;;13.60;4.50;;;;;20.10;97795.80;;;;111177;1249;41607;-67
2022/08/09 04:53:06;;;;;;;7.90;3.50;;;;;20.10;97789.40;;;;111111;1247;41957;-68
2022/08/09 04:55:40;;;;;;;11.30;4.10;;;;;20.10;97792.00;;;;111053;1249;41728;-69
2022/08/09 04:58:26;;;;;;;8.80;4.10;;;;;20.10;97787.40;;;;110971;1250;41156;-67
2022/08/09 05:00:55;;;;;;;9.20;4.00;;;;;20.10;97783.40;;;;110938;1250;41143;-67
2022/08/09 05:03:25;;;;;;;10.80;5.80;;;;;20.10;97787.20;;;;111096;1248;41603;-68
2022/08/09 05:06:11;;;;;;;11.50;5.70;;;;;20.00;97780.80;;;;111172;1249;41989;-67
2022/08/09 05:08:55;;;;;;;11.70;4.60;;;;;20.00;97783.20;;;;111193;1247;41911;-68
2022/08/09 05:11:28;;;;;;;9.60;4.70;;;;;20.00;97777.00;;;;111059;1248;41535;-68
2022/08/09 05:13:59;;;;;;;8.20;3.90;;;;;20.02;97777.60;;;;111081;1247;41149;-66
2022/08/09 05:16:28;;;;;;;8.30;3.70;;;;;20.10;97781.40;;;;111034;1248;41165;-67
2022/08/09 05:18:59;;;;;;;;;;;;;20.10;97781.40;;;;111078;1248;41157;-68
2022/08/09 05:21:28;;;;;;;12.70;5.00;;;;;20.20;97789.00;;;;111215;1249;41108;-67
2022/08/09 05:24:14;;;;;;;8.50;4.20;;;;;20.18;97792.80;;;;111100;1248;41484;-67
2022/08/09 05:26:43;;;;;;;8.20;3.90;;;;;20.20;97789.60;;;;111222;1250;41156;-66
2022/08/09 05:29:18;;;;;;;8.50;4.20;;;;;20.20;97790.20;;;;110998;1249;41135;-65
2022/08/09 05:31:51;;;;;;;11.00;5.30;;;;;20.20;97791.60;;;;111189;1247;41086;-66
2022/08/09 05:34:27;;;;;;;9.00;4.10;;;;;20.28;97798.20;;;;111141;1249;41258;-65
2022/08/09 05:37:04;;;;;;;9.00;3.80;;;;;20.20;97798.40;;;;111063;1248;41390;-66
2022/08/09 05:39:35;;;;;;;7.50;3.30;;;;;20.22;97798.20;;;;111080;1250;42345;-66
2022/08/09 05:42:12;;;;;;;8.60;2.90;;;;;20.30;97793.80;;;;111195;1248;41588;-65
2022/08/09 05:44:45;;;;;;;8.00;3.80;;;;;20.36;97793.40;;;;111119;1249;41272;-66
2022/08/09 05:47:15;;;;;;;9.20;4.10;;;;;20.40;97789.20;;;;111090;1250;41241;-67
2022/08/09 05:49:44;;;;;;;9.30;4.10;;;;;20.50;97782.40;;;;111044;1249;41353;-69
2022/08/09 05:52:33;;;;;;;6.70;2.90;;;;;20.50;97788.40;;;;110972;1250;41621;-68
2022/08/09 05:55:03;;;;;;;7.10;3.40;;;;;20.56;97792.60;;;;111133;1248;41382;-68
2022/08/09 05:57:35;;;;;;;9.20;3.30;;;;;20.60;97787.20;;;;111099;1250;41149;-68
2022/08/09 06:00:23;;;;;;;7.40;3.50;;;;;20.70;97794.80;;;;111090;1250;42082;-68
2022/08/09 06:02:55;;;;;;;7.80;3.30;;;;;20.70;97794.00;;;;111178;1250;41043;-68
2022/08/09 06:05:29;;;;;;;7.50;3.10;;;;;20.72;97799.80;;;;111090;1250;41256;-68
2022/08/09 06:08:17;;;;;;;8.80;3.00;;;;;20.80;97797.00;;;;111189;1249;41649;-68
2022/08/09 06:10:54;;;;;;;6.80;2.80;;;;;20.80;97795.00;;;;111217;1247;41315;-68
2022/08/09 06:13:25;;;;;;;6.20;2.70;;;;;20.80;97796.20;;;;111138;1249;41154;-68
2022/08/09 06:15:55;;;;;;;8.50;3.40;;;;;20.88;97796.60;;;;111084;1248;41589;-69
2022/08/09 06:18:24;;;;;;;6.90;3.00;;;;;20.90;97790.60;;;;111095;1250;41322;-68
2022/08/09 06:20:55;;;;;;;6.00;2.60;;;;;20.90;97788.00;;;;111153;1248;41132;-68
2022/08/09 06:23:27;;;;;;;7.20;3.00;;;;;20.90;97789.20;;;;111213;1247;41240;-68
2022/08/09 06:26:17;;;;;;;6.70;3.10;;;;;20.92;97783.80;;;;111284;1248;41189;-67
2022/08/09 06:28:52;;;;;;;7.30;3.30;;;;;21.00;97788.80;;;;111136;1250;41912;-67
2022/08/09 06:31:28;;;;;;;9.90;3.10;;;;;21.00;97794.80;;;;111135;1248;41590;-67
2022/08/09 06:34:07;;;;;;;7.50;3.20;;;;;21.00;97797.00;;;;110851;1250;41485;-68
2022/08/09 06:36:36;;;;;;;8.10;3.50;;;;;21.00;97800.00;;;;111070;1250;41168;-67
2022/08/09 06:39:11;;;;;;;8.60;3.60;;;;;21.00;97801.60;;;;111319;1249;41135;-68
2022/08/09 06:41:40;;;;;;;7.90;3.20;;;;;21.00;97802.80;;;;111093;1250;41137;-68
2022/08/09 06:44:31;;;;;;;7.00;3.20;;;;;21.00;97805.80;;;;110979;1248;41260;-66
2022/08/09 06:47:00;;;;;;;5.80;2.80;;;;;21.00;97809.40;;;;111057;1250;41152;-66
2022/08/09 06:49:29;;;;;;;8.80;3.10;;;;;21.10;97811.20;;;;110977;1247;41537;-68
2022/08/09 06:52:19;;;;;;;7.90;3.30;;;;;21.10;97811.80;;;;110907;1249;41127;-69
2022/08/09 06:54:47;;;;;;;7.80;3.10;;;;;21.14;97812.80;;;;111184;1249;41311;-68
2022/08/09 06:57:17;;;;;;;7.20;3.10;;;;;21.20;97810.00;;;;111259;1250;42384;-68
2022/08/09 06:59:46;;;;;;;6.50;2.90;;;;;21.20;97812.60;;;;110929;1250;41151;-68
2022/08/09 07:02:35;;;;;;;8.00;4.10;;;;;21.30;97818.60;;;;111218;1250;41131;-68
2022/08/09 07:05:05;;;;;;;7.70;3.50;;;;;21.30;97818.80;;;;110988;1250;41270;-68
2022/08/09 07:07:34;;;;;;;8.10;3.70;;;;;21.30;97822.60;;;;110975;1250;41576;-68
2022/08/09 07:10:22;;;;;;;9.10;4.00;;;;;21.40;97830.40;;;;111151;1250;41134;-68
2022/08/09 07:12:59;;;;;;;10.80;3.70;;;;;21.34;97831.80;;;;111110;1248;41149;-68
2022/08/09 07:15:27;;;;;;;7.90;3.70;;;;;21.30;97832.80;;;;110916;1250;41159;-68
2022/08/09 07:18:17;;;;;;;8.70;3.90;;;;;21.40;97828.60;;;;111152;1248;42523;-69
2022/08/09 07:20:46;;;;;;;8.70;4.00;;;;;21.40;97828.40;;;;111060;1249;41258;-67
2022/08/09 07:23:16;;;;;;;11.10;4.20;;;;;21.42;97830.20;;;;111058;1248;41155;-68
2022/08/09 07:25:47;;;;;;;8.90;4.30;;;;;21.42;97834.20;;;;110911;1250;41153;-68
2022/08/09 07:28:19;;;;;;;10.30;5.40;;;;;21.40;97836.80;;;;111162;1249;41148;-68
2022/08/09 07:30:55;;;;;;;11.00;6.30;;;;;21.44;97837.00;;;;111253;1250;41401;-68
2022/08/09 07:33:25;;;;;;;11.30;5.60;;;;;21.40;97837.00;;;;111140;1247;41136;-69
2022/08/09 07:35:53;;;;;;;11.80;5.80;;;;;21.34;97838.40;;;;111194;1248;42489;-68
2022/08/09 07:38:22;;;;;;;13.80;6.50;;;;;21.30;97834.60;;;;110958;1250;41789;-68
2022/08/09 07:40:54;;;;;;;13.50;5.80;;;;;21.30;97834.80;;;;111116;1250;42266;-68
2022/08/09 07:43:40;;;;;;;11.40;5.90;;;;;21.30;97836.20;;;;111017;1250;41998;-68
2022/08/09 07:46:24;;;;;;;10.70;5.80;;;;;21.30;97837.60;;;;111125;1248;42609;-69
2022/08/09 07:48:55;;;;;;;13.60;7.20;;;;;21.34;97837.60;;;;111215;1250;41168;-68
2022/08/09 07:51:27;;;;;;;15.00;6.40;;;;;21.40;97839.60;;;;111227;1250;41164;-69
2022/08/09 07:54:16;;;;;;;13.80;7.10;;;;;21.40;97840.80;;;;111267;1250;41152;-68
2022/08/09 07:56:46;;;;;;;11.70;5.80;;;;;21.48;97847.60;;;;111291;1248;41143;-67
2022/08/09 07:59:18;;;;;;;;;;;;;21.40;97846.40;;;;110962;1250;41294;-68
2022/08/09 08:02:02;;;;;;;15.10;7.60;;;;;21.50;97848.00;;;;111020;1247;42490;-67
2022/08/09 08:04:30;;;;;;;15.10;7.80;;;;;21.50;97853.80;;;;111011;1249;41133;-68
2022/08/09 08:07:03;;;;;;;13.60;7.50;;;;;21.50;97853.20;;;;111314;1249;41162;-68
2022/08/09 08:09:42;;;;;;;12.50;6.20;;;;;21.50;97863.60;;;;111098;1250;41249;-67
2022/08/09 08:12:19;;;;;;;10.70;5.50;;;;;21.60;97857.60;;;;111020;1247;41337;-70
2022/08/09 08:14:55;;;;;;;11.60;5.90;;;;;21.60;97858.80;;;;111082;1250;41274;-68
2022/08/09 08:17:24;;;;;;;15.40;5.80;;;;;21.70;97867.00;;;;111166;1247;41156;-69
2022/08/09 08:20:13;;;;;;;15.40;6.10;;;;;21.70;97869.60;;;;111042;1250;41141;-69
2022/08/09 08:22:42;;;;;;;10.90;5.80;;;;;21.80;97871.60;;;;111011;1250;41519;-69
2022/08/09 08:25:11;;;;;;;12.40;5.80;;;;;21.90;97868.00;;;;111136;1249;42150;-67
2022/08/09 08:27:41;;;;;;;10.20;5.50;;;;;21.90;97872.40;;;;111118;1250;41146;-69
2022/08/09 08:30:12;;;;;;;14.30;5.30;;;;;21.96;97870.60;;;;111082;1247;42498;-68
2022/08/09 08:32:41;;;;;;;12.50;4.80;;;;;22.04;97868.20;;;;111027;1250;41153;-68
2022/08/09 08:35:21;;;;;;;13.60;6.80;;;;;22.20;97871.60;;;;111054;1248;41173;-67
2022/08/09 08:37:50;;;;;;;10.80;4.90;;;;;22.30;97868.40;;;;111164;1248;41266;-68
2022/08/09 08:40:29;;;;;;;13.60;5.90;;;;;22.40;97864.20;;;;111173;1249;41244;-68
2022/08/09 08:42:59;;;;;;;10.80;5.50;;;;;22.50;97871.20;;;;111053;1249;41664;-66
2022/08/09 08:45:42;;;;;;;10.30;4.80;;;;;22.56;97868.40;;;;111313;1248;40881;-64
2022/08/09 08:48:21;;;;;;;9.40;4.50;;;;;22.70;97869.20;;;;110858;1250;41183;-66
2022/08/09 08:50:50;;;;;;;10.30;5.20;;;;;22.80;97873.20;;;;111156;1250;41127;-65
2022/08/09 08:53:19;;;;;;;9.40;4.70;;;;;22.92;97872.20;;;;110891;1250;41261;-66
2022/08/09 08:55:49;;;;;;;10.50;4.80;;;;;23.04;97870.40;;;;110853;1250;41377;-66
2022/08/09 08:58:20;;;;;;;12.60;5.10;;;;;23.10;97868.80;;;;110776;1250;41151;-66
2022/08/09 09:00:51;;;;;;;12.90;5.90;;;;;23.12;97870.20;;;;110620;1251;41134;-66
2022/08/09 09:03:32;;;;;;;9.40;4.60;;;;;23.20;97873.40;;;;111021;1250;41173;-66
2022/08/09 09:06:06;;;;;;;9.30;3.80;;;;;23.20;97868.40;;;;110703;1251;41148;-66
2022/08/09 09:08:38;;;;;;;9.60;4.20;;;;;23.30;97868.00;;;;110806;1249;42239;-66
2022/08/09 09:11:10;;;;;;;9.40;4.60;;;;;23.46;97866.80;;;;110673;1250;42388;-66
2022/08/09 09:13:42;;;;;;;10.30;5.60;;;;;23.54;97864.60;;;;110623;1248;42278;-66
2022/08/09 09:16:28;;;;;;;8.90;4.40;;;;;23.60;97864.40;;;;110568;1251;41271;-66
2022/08/09 09:19:04;;;;;;;9.90;4.80;;;;;23.70;97866.20;;;;110706;1250;41947;-66
2022/08/09 09:22:14;;;;;;;11.40;6.20;;;;;23.90;97862.40;;;;110755;1250;41622;-66
2022/08/09 09:24:54;;;;;;;11.20;4.70;;;;;23.90;97857.80;;;;110676;1251;42058;-66
2022/08/09 09:27:44;;;;;;;7.40;3.50;;;;;23.90;97856.80;;;;110578;1250;41715;-66
2022/08/09 09:30:33;;;;;;;7.70;3.70;;;;;24.10;97854.40;;;;110944;1249;41587;-65
2022/08/09 09:33:11;;;;;;;12.80;5.00;;;;;24.32;97848.60;;;;111079;1247;41262;-66
2022/08/09 09:35:58;;;;;;;8.70;3.90;;;;;24.50;97849.00;;;;110971;1250;41603;-66
2022/08/09 09:38:48;;;;;;;9.50;4.40;;;;;24.60;97847.40;;;;111001;1250;41314;-66
2022/08/09 09:41:26;;;;;;;8.80;3.50;;;;;24.80;97851.60;;;;111001;1251;41257;-66
2022/08/09 09:44:03;;;;;;;8.80;3.90;;;;;25.00;97851.40;;;;110996;1250;41725;-66
2022/08/09 09:46:40;;;;;;;10.20;4.30;;;;;25.20;97853.40;;;;110960;1250;41148;-65
2022/08/09 09:49:12;;;;;;;7.70;3.60;;;;;25.30;97851.60;;;;111013;1249;41149;-65
2022/08/09 09:51:41;;;;;;;8.40;3.60;;;;;25.40;97851.60;;;;111040;1250;41196;-65
2022/08/09 09:54:21;;;;;;;7.50;3.40;;;;;25.52;97855.80;;;;110956;1248;41348;-65
2022/08/09 09:56:50;;;;;;;9.10;3.30;;;;;25.66;97857.60;;;;111010;1250;41124;-65
2022/08/09 09:59:39;;;;;;;10.30;4.00;;;;;25.80;97863.40;;;;110964;1250;42274;-64
2022/08/09 10:02:09;;;;;;;8.60;3.90;;;;;25.80;97860.40;;;;110980;1250;41241;-66
2022/08/09 10:04:39;;;;;;;9.60;4.10;;;;;25.80;97860.00;;;;111001;1248;42377;-65
2022/08/09 10:07:25;;;;;;;9.10;3.90;;;;;25.80;97859.00;;;;111099;1250;42384;-65
2022/08/09 10:09:56;;;;;;;7.10;2.90;;;;;25.80;97858.00;;;;110626;1251;41183;-65
2022/08/09 10:12:29;;;;;;;7.00;3.30;;;;;25.80;97858.40;;;;111036;1250;41139;-65
2022/08/09 10:15:16;;;;;;;9.70;3.30;;;;;25.90;97851.80;;;;111010;1249;42436;-65
2022/08/09 10:18:11;;;;;;;6.30;3.00;;;;;26.00;97851.00;;;;110680;1250;41910;-66
2022/08/09 10:20:40;;;;;;;6.90;3.10;;;;;26.04;97849.00;;;;110681;1250;41678;-65
2022/08/09 10:23:13;;;;;;;9.10;3.20;;;;;26.10;97844.00;;;;110687;1250;42392;-65
2022/08/09 10:25:48;;;;;;;9.20;3.70;;;;;26.20;97846.00;;;;110900;1248;41705;-68
2022/08/09 10:28:36;;;;;;;9.80;4.50;;;;;26.30;97844.40;;;;110675;1250;41175;-65
2022/08/09 10:31:07;;;;;;;9.30;4.30;;;;;26.20;97845.00;;;;110931;1250;41733;-64
2022/08/09 10:33:55;;;;;;;;;;;;;26.10;97837.40;;;;110849;1250;41199;-64
2022/08/09 10:36:39;;;;;;;8.20;4.20;;;;;26.00;97838.40;;;;111013;1250;41837;-66
2022/08/09 10:39:09;;;;;;;7.70;3.70;;;;;25.94;97837.60;;;;110996;1250;41377;-65
2022/08/09 10:41:43;;;;;;;10.30;3.70;;;;;25.80;97840.00;;;;110572;1251;42384;-66
2022/08/09 10:44:12;;;;;;;10.40;4.90;;;;;25.80;97844.00;;;;110724;1251;41680;-65
2022/08/09 10:46:52;;;;;;;11.80;5.00;;;;;25.70;97842.00;;;;110762;1250;41195;-65
2022/08/09 10:49:40;;;;;;;9.90;4.40;;;;;25.54;97841.40;;;;110585;1251;41146;-65
2022/08/09 10:52:57;;;;;;;9.50;3.70;;;;;25.20;97839.20;;;;110618;1251;41626;-65
2022/08/09 10:55:29;;;;;;;12.30;4.70;;;;;25.10;97837.60;;;;110808;1250;41136;-66
2022/08/09 10:58:03;;;;;;;7.80;3.80;;;;;25.10;97832.40;;;;111091;1250;41128;-65
2022/08/09 11:00:36;;;;;;;9.60;3.90;;;;;25.12;97831.20;;;;110556;1251;41466;-65
2022/08/09 11:03:23;;;;;;;7.10;3.20;;;;;25.30;97826.40;;;;110991;1250;41214;-66
2022/08/09 11:06:14;;;;;;;8.60;3.90;;;;;25.50;97828.80;;;;110995;1250;41611;-65
2022/08/09 11:08:45;;;;;;;10.30;4.30;;;;;25.70;97828.40;;;;110651;1251;41157;-66
2022/08/09 11:11:16;;;;;;;9.60;3.70;;;;;25.78;97824.00;;;;111032;1250;41364;-66
2022/08/09 11:13:45;;;;;;;9.50;4.20;;;;;25.80;97825.60;;;;110812;1250;41139;-66
2022/08/09 11:16:33;;;;;;;9.50;3.50;;;;;25.80;97820.20;;;;110734;1250;41871;-66
2022/08/09 11:19:05;;;;;;;8.00;2.90;;;;;25.90;97818.60;;;;110761;1250;41295;-66
2022/08/09 11:21:54;;;;;;;8.80;4.00;;;;;26.06;97810.00;;;;110658;1251;41172;-65
2022/08/09 11:24:25;;;;;;;8.50;3.90;;;;;26.20;97805.80;;;;110729;1250;41437;-65
2022/08/09 11:26:53;;;;;;;11.30;5.40;;;;;26.20;97803.00;;;;111000;1250;41156;-65
2022/08/09 11:29:51;;;;;;;11.10;4.20;;;;;26.30;97802.40;;;;111014;1250;41300;-65
2022/08/09 11:32:38;;;;;;;10.30;4.30;;;;;26.20;97800.20;;;;110643;1249;41271;-66
2022/08/09 11:35:26;;;;;;;8.20;3.80;;;;;26.20;97795.80;;;;110630;1251;42394;-66
2022/08/09 11:38:17;;;;;;;9.30;4.00;;;;;26.20;97794.40;;;;110731;1250;41690;-66
2022/08/09 11:40:47;;;;;;;11.50;5.20;;;;;26.20;97792.60;;;;110586;1251;41157;-66
2022/08/09 11:43:19;;;;;;;9.80;4.80;;;;;26.20;97785.40;;;;110706;1250;41149;-67
2022/08/09 11:46:02;;;;;;;10.00;5.40;;;;;26.00;97783.40;;;;110666;1250;41638;-65
2022/08/09 11:48:33;;;;;;;9.10;4.10;;;;;26.00;97779.00;;;;110725;1251;41212;-66
2022/08/09 11:51:04;;;;;;;8.50;3.80;;;;;25.80;97775.80;;;;110512;1253;40891;-66
2022/08/09 11:54:12;;;;;;;11.00;4.10;;;;;25.90;97770.60;;;;110853;1250;41262;-65
2022/08/09 11:56:48;;;;;;;7.30;3.40;;;;;26.10;97762.40;;;;110625;1251;41141;-66
2022/08/09 11:59:26;;;;;;;11.50;5.20;;;;;26.30;97768.40;;;;110684;1251;41254;-65
2022/08/09 12:01:57;;;;;;;9.10;3.70;;;;;26.48;97756.60;;;;110728;1251;41157;-65
2022/08/09 12:04:45;;;;;;;6.60;3.00;;;;;26.60;97758.80;;;;110723;1251;41715;-66
2022/08/09 12:07:15;;;;;;;9.90;4.80;;;;;26.80;97750.40;;;;111035;1250;41776;-65
2022/08/09 12:09:48;;;;;;;9.70;3.80;;;;;26.90;97747.60;;;;111133;1251;41528;-66
2022/08/09 12:12:18;;;;;;;8.70;3.60;;;;;26.92;97737.60;;;;111019;1250;41156;-66
2022/08/09 12:14:56;;;;;;;11.20;3.60;;;;;27.10;97737.00;;;;110613;1251;41684;-64
2022/08/09 12:17:36;;;;;;;8.20;3.30;;;;;27.30;97736.60;;;;110992;1250;41373;-66
2022/08/09 12:20:16;;;;;;;6.80;2.90;;;;;27.50;97735.40;;;;110716;1250;41139;-66
2022/08/09 12:22:55;;;;;;;8.00;3.40;;;;;27.90;97729.00;;;;110639;1251;42564;-66
2022/08/09 12:25:26;;;;;;;10.00;3.50;;;;;28.54;97720.00;;;;110612;1251;41811;-67
2022/08/09 12:28:13;;;;;;;6.80;2.70;;;;;29.64;97703.40;;;;110733;1251;41140;-66
2022/08/09 12:31:02;;;;;;;5.90;2.50;;;;;30.98;97698.00;;;;110551;1251;42418;-66
2022/08/09 12:33:40;;;;;;;8.90;3.00;;;;;32.04;97694.40;;;;110606;1251;41136;-66
2022/08/09 12:36:25;;;;;;;5.80;2.30;;;;;32.64;97688.80;;;;110798;1250;41135;-66
2022/08/09 12:39:00;;;;;;;5.00;2.20;;;;;32.30;97689.20;;;;110696;1251;41273;-67
2022/08/09 12:41:31;;;;;;;6.60;2.30;;;;;32.10;97690.60;;;;110684;1252;41159;-65
2022/08/09 12:44:07;;;;;;;5.70;2.60;;;;;31.90;97685.00;;;;110551;1251;41990;-65
2022/08/09 12:46:43;;;;;;;5.40;2.50;;;;;31.64;97679.60;;;;110620;1251;41255;-65
2022/08/09 12:49:17;;;;;;;7.10;3.20;;;;;31.08;97680.80;;;;110513;1251;41145;-65
2022/08/09 12:51:53;;;;;;;9.30;2.80;;;;;31.00;97678.40;;;;110551;1251;41151;-66
2022/08/09 12:54:53;;;;;;;4.80;2.00;;;;;30.70;97680.00;;;;110578;1253;41151;-66